sensor_id;sensor_type;location;lat;lon;timestamp;P1;durP1;ratioP1;P2;durP2;ratioP2
6828;SDS011;17930;48.592;8.868;2024-03-17T00:00:24;7.47;;;3.70;;
6828;SDS011;17930;48.592;8.868;2024-03-17T00:02:51;6.47;;;3.90;;
6828;SDS011;17930;48.592;8.868;2024-03-17T00:05:19;4.87;;;3.67;;
6828;SDS011;17930;48.592;8.868;2024-03-17T00:07:44;5.85;;;3.78;;
6828;SDS011;17930;48.592;8.868;2024-03-17T00:10:11;6.13;;;4.13;;
6828;SDS011;17930;48.592;8.868;2024-03-17T00:12:37;5.77;;;3.23;;
6828;SDS011;17930;48.592;8.868;2024-03-17T00:15:04;8.60;;;4.30;;
6828;SDS011;17930;48.592;8.868;2024-03-17T00:17:30;7.50;;;3.93;;
6828;SDS011;17930;48.592;8.868;2024-03-17T00:19:59;7.10;;;4.27;;
6828;SDS011;17930;48.592;8.868;2024-03-17T00:22:28;7.90;;;4.67;;
6828;SDS011;17930;48.592;8.868;2024-03-17T00:24:55;7.33;;;4.10;;
6828;SDS011;17930;48.592;8.868;2024-03-17T00:27:20;5.10;;;3.63;;
6828;SDS011;17930;48.592;8.868;2024-03-17T00:29:47;5.10;;;3.28;;
6828;SDS011;17930;48.592;8.868;2024-03-17T00:32:13;5.87;;;3.80;;
6828;SDS011;17930;48.592;8.868;2024-03-17T00:34:40;6.17;;;4.00;;
6828;SDS011;17930;48.592;8.868;2024-03-17T00:37:05;5.23;;;3.07;;
6828;SDS011;17930;48.592;8.868;2024-03-17T00:39:34;8.00;;;3.97;;
6828;SDS011;17930;48.592;8.868;2024-03-17T00:42:00;5.80;;;3.60;;
6828;SDS011;17930;48.592;8.868;2024-03-17T00:44:26;4.75;;;3.30;;
6828;SDS011;17930;48.592;8.868;2024-03-17T00:46:52;4.70;;;3.40;;
6828;SDS011;17930;48.592;8.868;2024-03-17T00:49:19;5.80;;;3.97;;
6828;SDS011;17930;48.592;8.868;2024-03-17T00:51:45;7.13;;;4.13;;
6828;SDS011;17930;48.592;8.868;2024-03-17T00:54:13;7.07;;;3.45;;
6828;SDS011;17930;48.592;8.868;2024-03-17T00:56:40;8.00;;;3.80;;
6828;SDS011;17930;48.592;8.868;2024-03-17T00:59:06;5.43;;;3.65;;
6828;SDS011;17930;48.592;8.868;2024-03-17T01:01:32;7.80;;;3.77;;
6828;SDS011;17930;48.592;8.868;2024-03-17T01:03:59;5.70;;;3.93;;
6828;SDS011;17930;48.592;8.868;2024-03-17T01:06:25;6.13;;;4.10;;
6828;SDS011;17930;48.592;8.868;2024-03-17T01:08:51;5.70;;;3.88;;
6828;SDS011;17930;48.592;8.868;2024-03-17T01:11:17;9.07;;;5.13;;
6828;SDS011;17930;48.592;8.868;2024-03-17T01:13:46;10.07;;;5.00;;
6828;SDS011;17930;48.592;8.868;2024-03-17T01:16:12;6.60;;;4.33;;
6828;SDS011;17930;48.592;8.868;2024-03-17T01:18:38;9.33;;;5.13;;
6828;SDS011;17930;48.592;8.868;2024-03-17T01:21:05;8.40;;;5.13;;
6828;SDS011;17930;48.592;8.868;2024-03-17T01:23:31;7.47;;;4.37;;
6828;SDS011;17930;48.592;8.868;2024-03-17T01:25:57;3.83;;;3.30;;
6828;SDS011;17930;48.592;8.868;2024-03-17T01:28:24;4.70;;;3.23;;
6828;SDS011;17930;48.592;8.868;2024-03-17T01:30:52;5.17;;;3.50;;
6828;SDS011;17930;48.592;8.868;2024-03-17T01:33:19;3.83;;;2.90;;
6828;SDS011;17930;48.592;8.868;2024-03-17T01:35:45;7.33;;;3.73;;
6828;SDS011;17930;48.592;8.868;2024-03-17T01:38:12;4.60;;;3.37;;
6828;SDS011;17930;48.592;8.868;2024-03-17T01:40:38;4.67;;;3.17;;
6828;SDS011;17930;48.592;8.868;2024-03-17T01:43:05;7.33;;;3.53;;
6828;SDS011;17930;48.592;8.868;2024-03-17T01:45:35;7.70;;;4.20;;
6828;SDS011;17930;48.592;8.868;2024-03-17T01:48:03;6.53;;;3.33;;
6828;SDS011;17930;48.592;8.868;2024-03-17T01:50:39;4.27;;;3.13;;
6828;SDS011;17930;48.592;8.868;2024-03-17T01:53:06;4.73;;;3.27;;
6828;SDS011;17930;48.592;8.868;2024-03-17T01:55:37;18.27;;;10.40;;
6828;SDS011;17930;48.592;8.868;2024-03-17T01:58:04;13.93;;;7.30;;
6828;SDS011;17930;48.592;8.868;2024-03-17T02:00:32;7.53;;;4.80;;
6828;SDS011;17930;48.592;8.868;2024-03-17T02:03:01;6.27;;;4.00;;
6828;SDS011;17930;48.592;8.868;2024-03-17T02:05:28;10.07;;;4.43;;
6828;SDS011;17930;48.592;8.868;2024-03-17T02:07:55;5.63;;;3.80;;
6828;SDS011;17930;48.592;8.868;2024-03-17T02:10:21;7.13;;;3.83;;
6828;SDS011;17930;48.592;8.868;2024-03-17T02:12:48;5.97;;;3.97;;
6828;SDS011;17930;48.592;8.868;2024-03-17T02:15:14;5.07;;;3.50;;
6828;SDS011;17930;48.592;8.868;2024-03-17T02:17:41;6.03;;;4.23;;
6828;SDS011;17930;48.592;8.868;2024-03-17T02:20:07;7.37;;;4.20;;
6828;SDS011;17930;48.592;8.868;2024-03-17T02:22:37;5.40;;;3.50;;
6828;SDS011;17930;48.592;8.868;2024-03-17T02:25:03;6.03;;;3.93;;
6828;SDS011;17930;48.592;8.868;2024-03-17T02:27:34;6.90;;;4.00;;
6828;SDS011;17930;48.592;8.868;2024-03-17T02:29:59;5.40;;;3.87;;
6828;SDS011;17930;48.592;8.868;2024-03-17T02:32:26;4.97;;;3.77;;
6828;SDS011;17930;48.592;8.868;2024-03-17T02:34:53;4.53;;;3.60;;
6828;SDS011;17930;48.592;8.868;2024-03-17T02:37:19;7.07;;;3.50;;
6828;SDS011;17930;48.592;8.868;2024-03-17T02:39:46;5.93;;;4.07;;
6828;SDS011;17930;48.592;8.868;2024-03-17T02:42:13;7.83;;;3.73;;
6828;SDS011;17930;48.592;8.868;2024-03-17T02:44:40;6.03;;;3.97;;
6828;SDS011;17930;48.592;8.868;2024-03-17T02:47:07;4.80;;;4.00;;
6828;SDS011;17930;48.592;8.868;2024-03-17T02:49:35;4.40;;;3.40;;
6828;SDS011;17930;48.592;8.868;2024-03-17T02:52:04;5.43;;;3.43;;
6828;SDS011;17930;48.592;8.868;2024-03-17T02:54:32;6.23;;;3.47;;
6828;SDS011;17930;48.592;8.868;2024-03-17T02:57:02;4.57;;;3.37;;
6828;SDS011;17930;48.592;8.868;2024-03-17T02:59:29;6.40;;;3.40;;
6828;SDS011;17930;48.592;8.868;2024-03-17T03:01:56;4.50;;;3.23;;
6828;SDS011;17930;48.592;8.868;2024-03-17T03:04:25;5.67;;;3.93;;
6828;SDS011;17930;48.592;8.868;2024-03-17T03:06:52;4.33;;;3.47;;
6828;SDS011;17930;48.592;8.868;2024-03-17T03:09:18;4.40;;;3.13;;
6828;SDS011;17930;48.592;8.868;2024-03-17T03:11:50;5.37;;;3.50;;
6828;SDS011;17930;48.592;8.868;2024-03-17T03:14:18;5.80;;;3.70;;
6828;SDS011;17930;48.592;8.868;2024-03-17T03:16:45;4.10;;;3.10;;
6828;SDS011;17930;48.592;8.868;2024-03-17T03:19:12;9.80;;;3.37;;
6828;SDS011;17930;48.592;8.868;2024-03-17T03:21:39;4.13;;;3.07;;
6828;SDS011;17930;48.592;8.868;2024-03-17T03:24:06;6.93;;;3.70;;
6828;SDS011;17930;48.592;8.868;2024-03-17T03:26:33;6.90;;;3.50;;
6828;SDS011;17930;48.592;8.868;2024-03-17T03:28:59;4.63;;;3.23;;
6828;SDS011;17930;48.592;8.868;2024-03-17T03:31:27;4.73;;;3.40;;
6828;SDS011;17930;48.592;8.868;2024-03-17T03:33:54;8.27;;;3.50;;
6828;SDS011;17930;48.592;8.868;2024-03-17T03:36:22;6.00;;;3.50;;
6828;SDS011;17930;48.592;8.868;2024-03-17T03:38:49;5.30;;;3.30;;
6828;SDS011;17930;48.592;8.868;2024-03-17T03:41:15;6.53;;;3.90;;
6828;SDS011;17930;48.592;8.868;2024-03-17T03:43:42;3.87;;;2.93;;
6828;SDS011;17930;48.592;8.868;2024-03-17T03:46:11;5.03;;;2.97;;
6828;SDS011;17930;48.592;8.868;2024-03-17T03:48:39;5.07;;;3.00;;
6828;SDS011;17930;48.592;8.868;2024-03-17T03:51:06;7.57;;;4.10;;
6828;SDS011;17930;48.592;8.868;2024-03-17T03:53:33;5.00;;;3.40;;
6828;SDS011;17930;48.592;8.868;2024-03-17T03:56:02;7.33;;;3.30;;
6828;SDS011;17930;48.592;8.868;2024-03-17T03:58:31;4.47;;;3.43;;
6828;SDS011;17930;48.592;8.868;2024-03-17T04:00:59;4.83;;;2.73;;
6828;SDS011;17930;48.592;8.868;2024-03-17T04:03:27;5.93;;;3.40;;
6828;SDS011;17930;48.592;8.868;2024-03-17T04:06:01;8.10;;;3.50;;
6828;SDS011;17930;48.592;8.868;2024-03-17T04:08:30;5.53;;;3.93;;
6828;SDS011;17930;48.592;8.868;2024-03-17T04:10:56;5.57;;;3.67;;
6828;SDS011;17930;48.592;8.868;2024-03-17T04:13:23;6.27;;;4.33;;
6828;SDS011;17930;48.592;8.868;2024-03-17T04:15:50;6.57;;;3.77;;
6828;SDS011;17930;48.592;8.868;2024-03-17T04:18:21;7.30;;;4.07;;
6828;SDS011;17930;48.592;8.868;2024-03-17T04:20:50;6.60;;;3.60;;
6828;SDS011;17930;48.592;8.868;2024-03-17T04:23:19;7.03;;;4.00;;
6828;SDS011;17930;48.592;8.868;2024-03-17T04:25:46;6.30;;;4.07;;
6828;SDS011;17930;48.592;8.868;2024-03-17T04:28:13;5.87;;;3.70;;
6828;SDS011;17930;48.592;8.868;2024-03-17T04:30:40;5.80;;;3.87;;
6828;SDS011;17930;48.592;8.868;2024-03-17T04:33:07;5.10;;;3.73;;
6828;SDS011;17930;48.592;8.868;2024-03-17T04:35:35;5.10;;;3.33;;
6828;SDS011;17930;48.592;8.868;2024-03-17T04:38:02;4.73;;;3.67;;
6828;SDS011;17930;48.592;8.868;2024-03-17T04:40:30;5.43;;;3.40;;
6828;SDS011;17930;48.592;8.868;2024-03-17T04:42:57;5.90;;;3.43;;
6828;SDS011;17930;48.592;8.868;2024-03-17T04:45:23;6.13;;;3.43;;
6828;SDS011;17930;48.592;8.868;2024-03-17T04:47:50;4.20;;;2.90;;
6828;SDS011;17930;48.592;8.868;2024-03-17T04:50:16;4.97;;;3.27;;
6828;SDS011;17930;48.592;8.868;2024-03-17T04:52:43;5.13;;;3.43;;
6828;SDS011;17930;48.592;8.868;2024-03-17T04:55:10;5.00;;;3.33;;
6828;SDS011;17930;48.592;8.868;2024-03-17T04:57:38;4.70;;;3.23;;
6828;SDS011;17930;48.592;8.868;2024-03-17T05:00:05;5.37;;;3.50;;
6828;SDS011;17930;48.592;8.868;2024-03-17T05:02:32;4.53;;;3.33;;
6828;SDS011;17930;48.592;8.868;2024-03-17T05:04:59;4.30;;;2.80;;
6828;SDS011;17930;48.592;8.868;2024-03-17T05:07:26;6.70;;;3.73;;
6828;SDS011;17930;48.592;8.868;2024-03-17T05:09:53;5.13;;;3.00;;
6828;SDS011;17930;48.592;8.868;2024-03-17T05:12:19;5.63;;;3.73;;
6828;SDS011;17930;48.592;8.868;2024-03-17T05:14:47;5.03;;;3.20;;
6828;SDS011;17930;48.592;8.868;2024-03-17T05:17:14;5.60;;;3.23;;
6828;SDS011;17930;48.592;8.868;2024-03-17T05:19:41;4.47;;;2.77;;
6828;SDS011;17930;48.592;8.868;2024-03-17T05:22:08;5.63;;;3.80;;
6828;SDS011;17930;48.592;8.868;2024-03-17T05:24:35;5.40;;;3.20;;
6828;SDS011;17930;48.592;8.868;2024-03-17T05:27:02;5.60;;;3.60;;
6828;SDS011;17930;48.592;8.868;2024-03-17T05:29:29;6.40;;;4.07;;
6828;SDS011;17930;48.592;8.868;2024-03-17T05:31:57;5.97;;;3.70;;
6828;SDS011;17930;48.592;8.868;2024-03-17T05:34:24;4.93;;;3.53;;
6828;SDS011;17930;48.592;8.868;2024-03-17T05:36:51;4.77;;;3.13;;
6828;SDS011;17930;48.592;8.868;2024-03-17T05:39:18;4.20;;;3.63;;
6828;SDS011;17930;48.592;8.868;2024-03-17T05:41:45;3.60;;;2.83;;
6828;SDS011;17930;48.592;8.868;2024-03-17T05:44:13;5.40;;;3.90;;
6828;SDS011;17930;48.592;8.868;2024-03-17T05:46:40;5.57;;;3.40;;
6828;SDS011;17930;48.592;8.868;2024-03-17T05:49:09;5.27;;;3.50;;
6828;SDS011;17930;48.592;8.868;2024-03-17T05:51:36;4.20;;;3.00;;
6828;SDS011;17930;48.592;8.868;2024-03-17T05:54:03;6.03;;;3.17;;
6828;SDS011;17930;48.592;8.868;2024-03-17T05:56:29;5.20;;;3.50;;
6828;SDS011;17930;48.592;8.868;2024-03-17T05:58:56;7.50;;;4.00;;
6828;SDS011;17930;48.592;8.868;2024-03-17T06:01:23;6.87;;;3.73;;
6828;SDS011;17930;48.592;8.868;2024-03-17T06:03:49;8.90;;;3.43;;
6828;SDS011;17930;48.592;8.868;2024-03-17T06:06:17;5.50;;;3.50;;
6828;SDS011;17930;48.592;8.868;2024-03-17T06:08:44;4.00;;;2.73;;
6828;SDS011;17930;48.592;8.868;2024-03-17T06:11:11;5.73;;;3.87;;
6828;SDS011;17930;48.592;8.868;2024-03-17T06:13:38;3.87;;;3.17;;
6828;SDS011;17930;48.592;8.868;2024-03-17T06:16:05;7.47;;;3.53;;
6828;SDS011;17930;48.592;8.868;2024-03-17T06:18:31;4.90;;;3.03;;
6828;SDS011;17930;48.592;8.868;2024-03-17T06:20:58;4.63;;;3.10;;
6828;SDS011;17930;48.592;8.868;2024-03-17T06:23:26;4.90;;;3.50;;
6828;SDS011;17930;48.592;8.868;2024-03-17T06:25:53;4.30;;;3.10;;
6828;SDS011;17930;48.592;8.868;2024-03-17T06:28:20;5.17;;;2.93;;
6828;SDS011;17930;48.592;8.868;2024-03-17T06:30:54;4.97;;;3.87;;
6828;SDS011;17930;48.592;8.868;2024-03-17T06:33:21;5.83;;;3.60;;
6828;SDS011;17930;48.592;8.868;2024-03-17T06:35:47;4.83;;;3.53;;
6828;SDS011;17930;48.592;8.868;2024-03-17T06:38:14;7.53;;;3.83;;
6828;SDS011;17930;48.592;8.868;2024-03-17T06:40:47;5.10;;;3.30;;
6828;SDS011;17930;48.592;8.868;2024-03-17T06:43:14;6.83;;;3.67;;
6828;SDS011;17930;48.592;8.868;2024-03-17T06:45:41;6.77;;;3.40;;
6828;SDS011;17930;48.592;8.868;2024-03-17T06:48:08;5.13;;;3.73;;
6828;SDS011;17930;48.592;8.868;2024-03-17T06:50:34;6.73;;;4.10;;
6828;SDS011;17930;48.592;8.868;2024-03-17T06:53:03;5.00;;;3.37;;
6828;SDS011;17930;48.592;8.868;2024-03-17T06:55:30;6.47;;;3.70;;
6828;SDS011;17930;48.592;8.868;2024-03-17T06:57:58;6.27;;;3.80;;
6828;SDS011;17930;48.592;8.868;2024-03-17T07:00:25;5.90;;;3.57;;
6828;SDS011;17930;48.592;8.868;2024-03-17T07:02:51;7.53;;;3.90;;
6828;SDS011;17930;48.592;8.868;2024-03-17T07:05:18;3.93;;;3.23;;
6828;SDS011;17930;48.592;8.868;2024-03-17T07:07:44;4.37;;;3.13;;
6828;SDS011;17930;48.592;8.868;2024-03-17T07:10:12;5.33;;;3.57;;
6828;SDS011;17930;48.592;8.868;2024-03-17T07:12:38;5.60;;;3.87;;
6828;SDS011;17930;48.592;8.868;2024-03-17T07:15:07;7.30;;;4.20;;
6828;SDS011;17930;48.592;8.868;2024-03-17T07:17:36;4.57;;;3.43;;
6828;SDS011;17930;48.592;8.868;2024-03-17T07:20:03;6.90;;;3.43;;
6828;SDS011;17930;48.592;8.868;2024-03-17T07:22:33;5.47;;;3.70;;
6828;SDS011;17930;48.592;8.868;2024-03-17T07:24:59;6.50;;;4.13;;
6828;SDS011;17930;48.592;8.868;2024-03-17T07:27:26;6.23;;;3.87;;
6828;SDS011;17930;48.592;8.868;2024-03-17T07:29:53;4.60;;;3.40;;
6828;SDS011;17930;48.592;8.868;2024-03-17T07:32:21;5.77;;;3.80;;
6828;SDS011;17930;48.592;8.868;2024-03-17T07:34:48;7.87;;;3.87;;
6828;SDS011;17930;48.592;8.868;2024-03-17T07:37:15;5.60;;;3.63;;
6828;SDS011;17930;48.592;8.868;2024-03-17T07:39:42;4.80;;;3.30;;
6828;SDS011;17930;48.592;8.868;2024-03-17T07:42:08;5.03;;;3.70;;
6828;SDS011;17930;48.592;8.868;2024-03-17T07:44:35;4.50;;;2.87;;
6828;SDS011;17930;48.592;8.868;2024-03-17T07:47:02;3.57;;;3.03;;
6828;SDS011;17930;48.592;8.868;2024-03-17T07:49:31;5.07;;;2.83;;
6828;SDS011;17930;48.592;8.868;2024-03-17T07:51:58;3.63;;;3.00;;
6828;SDS011;17930;48.592;8.868;2024-03-17T07:54:25;4.73;;;2.60;;
6828;SDS011;17930;48.592;8.868;2024-03-17T07:56:52;4.73;;;2.73;;
6828;SDS011;17930;48.592;8.868;2024-03-17T07:59:20;5.67;;;3.33;;
6828;SDS011;17930;48.592;8.868;2024-03-17T08:01:47;3.53;;;2.90;;
6828;SDS011;17930;48.592;8.868;2024-03-17T08:04:13;4.67;;;2.90;;
6828;SDS011;17930;48.592;8.868;2024-03-17T08:06:43;3.73;;;2.80;;
6828;SDS011;17930;48.592;8.868;2024-03-17T08:09:10;4.20;;;2.90;;
6828;SDS011;17930;48.592;8.868;2024-03-17T08:11:37;5.00;;;3.20;;
6828;SDS011;17930;48.592;8.868;2024-03-17T08:14:09;3.73;;;3.00;;
6828;SDS011;17930;48.592;8.868;2024-03-17T08:16:35;7.20;;;3.40;;
6828;SDS011;17930;48.592;8.868;2024-03-17T08:19:02;3.23;;;2.70;;
6828;SDS011;17930;48.592;8.868;2024-03-17T08:21:29;4.00;;;3.40;;
6828;SDS011;17930;48.592;8.868;2024-03-17T08:23:56;5.07;;;3.30;;
6828;SDS011;17930;48.592;8.868;2024-03-17T08:26:24;4.70;;;3.27;;
6828;SDS011;17930;48.592;8.868;2024-03-17T08:28:51;4.57;;;3.47;;
6828;SDS011;17930;48.592;8.868;2024-03-17T08:31:18;4.00;;;3.43;;
6828;SDS011;17930;48.592;8.868;2024-03-17T08:33:44;5.33;;;3.23;;
6828;SDS011;17930;48.592;8.868;2024-03-17T08:36:12;3.60;;;3.30;;
6828;SDS011;17930;48.592;8.868;2024-03-17T08:38:43;8.07;;;3.60;;
6828;SDS011;17930;48.592;8.868;2024-03-17T08:41:11;3.97;;;2.90;;
6828;SDS011;17930;48.592;8.868;2024-03-17T08:43:38;4.03;;;3.33;;
6828;SDS011;17930;48.592;8.868;2024-03-17T08:46:06;2.67;;;2.37;;
6828;SDS011;17930;48.592;8.868;2024-03-17T08:48:35;3.50;;;2.70;;
6828;SDS011;17930;48.592;8.868;2024-03-17T08:51:03;3.47;;;3.00;;
6828;SDS011;17930;48.592;8.868;2024-03-17T08:53:31;3.10;;;2.80;;
6828;SDS011;17930;48.592;8.868;2024-03-17T08:55:58;4.53;;;2.73;;
6828;SDS011;17930;48.592;8.868;2024-03-17T08:58:27;3.80;;;3.00;;
6828;SDS011;17930;48.592;8.868;2024-03-17T09:00:54;2.63;;;2.27;;
6828;SDS011;17930;48.592;8.868;2024-03-17T09:03:21;3.47;;;2.70;;
6828;SDS011;17930;48.592;8.868;2024-03-17T09:05:49;4.10;;;2.60;;
6828;SDS011;17930;48.592;8.868;2024-03-17T09:08:18;3.10;;;2.80;;
6828;SDS011;17930;48.592;8.868;2024-03-17T09:10:47;3.50;;;2.70;;
6828;SDS011;17930;48.592;8.868;2024-03-17T09:13:15;3.20;;;2.70;;
6828;SDS011;17930;48.592;8.868;2024-03-17T09:15:50;4.90;;;2.90;;
6828;SDS011;17930;48.592;8.868;2024-03-17T09:18:18;4.07;;;3.00;;
6828;SDS011;17930;48.592;8.868;2024-03-17T09:20:45;3.73;;;2.80;;
6828;SDS011;17930;48.592;8.868;2024-03-17T09:23:11;4.30;;;2.53;;
6828;SDS011;17930;48.592;8.868;2024-03-17T09:25:39;4.67;;;2.60;;
6828;SDS011;17930;48.592;8.868;2024-03-17T09:28:06;4.23;;;2.97;;
6828;SDS011;17930;48.592;8.868;2024-03-17T09:30:32;3.90;;;3.20;;
6828;SDS011;17930;48.592;8.868;2024-03-17T09:33:01;4.43;;;3.17;;
6828;SDS011;17930;48.592;8.868;2024-03-17T09:35:29;4.40;;;3.20;;
6828;SDS011;17930;48.592;8.868;2024-03-17T09:37:56;3.73;;;2.80;;
6828;SDS011;17930;48.592;8.868;2024-03-17T09:40:23;3.90;;;2.73;;
6828;SDS011;17930;48.592;8.868;2024-03-17T09:42:50;3.40;;;2.57;;
6828;SDS011;17930;48.592;8.868;2024-03-17T09:45:17;6.47;;;2.60;;
6828;SDS011;17930;48.592;8.868;2024-03-17T09:47:45;4.40;;;2.50;;
6828;SDS011;17930;48.592;8.868;2024-03-17T09:50:13;3.63;;;2.57;;
6828;SDS011;17930;48.592;8.868;2024-03-17T09:52:42;3.37;;;2.90;;
6828;SDS011;17930;48.592;8.868;2024-03-17T09:55:13;3.27;;;2.60;;
6828;SDS011;17930;48.592;8.868;2024-03-17T09:57:42;3.63;;;2.47;;
6828;SDS011;17930;48.592;8.868;2024-03-17T10:00:09;3.60;;;2.50;;
6828;SDS011;17930;48.592;8.868;2024-03-17T10:02:42;4.10;;;2.17;;
6828;SDS011;17930;48.592;8.868;2024-03-17T10:05:21;2.93;;;2.57;;
6828;SDS011;17930;48.592;8.868;2024-03-17T10:07:49;2.93;;;2.40;;
6828;SDS011;17930;48.592;8.868;2024-03-17T10:10:17;2.77;;;2.20;;
6828;SDS011;17930;48.592;8.868;2024-03-17T10:12:48;2.80;;;1.87;;
6828;SDS011;17930;48.592;8.868;2024-03-17T10:15:16;2.50;;;2.20;;
6828;SDS011;17930;48.592;8.868;2024-03-17T10:17:44;3.13;;;2.20;;
6828;SDS011;17930;48.592;8.868;2024-03-17T10:20:11;2.93;;;2.27;;
6828;SDS011;17930;48.592;8.868;2024-03-17T10:22:49;1.73;;;1.63;;
6828;SDS011;17930;48.592;8.868;2024-03-17T10:25:24;5.97;;;2.30;;
6828;SDS011;17930;48.592;8.868;2024-03-17T10:27:51;2.67;;;2.07;;
6828;SDS011;17930;48.592;8.868;2024-03-17T10:30:19;3.00;;;2.13;;
6828;SDS011;17930;48.592;8.868;2024-03-17T10:32:51;2.30;;;1.67;;
6828;SDS011;17930;48.592;8.868;2024-03-17T10:35:32;2.83;;;1.80;;
6828;SDS011;17930;48.592;8.868;2024-03-17T10:38:01;3.30;;;2.03;;
6828;SDS011;17930;48.592;8.868;2024-03-17T10:40:30;4.10;;;2.40;;
6828;SDS011;17930;48.592;8.868;2024-03-17T10:42:59;4.63;;;1.90;;
6828;SDS011;17930;48.592;8.868;2024-03-17T10:45:27;3.60;;;2.83;;
6828;SDS011;17930;48.592;8.868;2024-03-17T10:47:56;3.00;;;2.30;;
6828;SDS011;17930;48.592;8.868;2024-03-17T10:50:26;2.93;;;2.00;;
6828;SDS011;17930;48.592;8.868;2024-03-17T10:52:58;2.43;;;1.60;;
6828;SDS011;17930;48.592;8.868;2024-03-17T10:55:36;3.07;;;1.97;;
6828;SDS011;17930;48.592;8.868;2024-03-17T10:58:11;2.87;;;1.90;;
6828;SDS011;17930;48.592;8.868;2024-03-17T11:00:47;3.67;;;2.07;;
6828;SDS011;17930;48.592;8.868;2024-03-17T11:03:17;1.80;;;1.70;;
6828;SDS011;17930;48.592;8.868;2024-03-17T11:05:44;3.97;;;2.03;;
6828;SDS011;17930;48.592;8.868;2024-03-17T11:08:16;2.97;;;2.17;;
6828;SDS011;17930;48.592;8.868;2024-03-17T11:10:48;4.27;;;1.93;;
6828;SDS011;17930;48.592;8.868;2024-03-17T11:13:24;4.53;;;1.90;;
6828;SDS011;17930;48.592;8.868;2024-03-17T11:15:52;3.53;;;1.93;;
6828;SDS011;17930;48.592;8.868;2024-03-17T11:18:28;3.07;;;2.00;;
6828;SDS011;17930;48.592;8.868;2024-03-17T11:20:57;3.07;;;1.87;;
6828;SDS011;17930;48.592;8.868;2024-03-17T11:23:29;2.20;;;1.50;;
6828;SDS011;17930;48.592;8.868;2024-03-17T11:25:57;2.40;;;1.90;;
6828;SDS011;17930;48.592;8.868;2024-03-17T11:34:07;1.87;;;1.70;;
6828;SDS011;17930;48.592;8.868;2024-03-17T11:36:53;3.63;;;1.73;;
6828;SDS011;17930;48.592;8.868;2024-03-17T11:39:22;2.87;;;1.80;;
6828;SDS011;17930;48.592;8.868;2024-03-17T11:42:21;3.87;;;1.60;;
6828;SDS011;17930;48.592;8.868;2024-03-17T11:44:58;2.00;;;1.53;;
6828;SDS011;17930;48.592;8.868;2024-03-17T11:47:35;1.93;;;1.40;;
6828;SDS011;17930;48.592;8.868;2024-03-17T11:50:04;1.30;;;1.20;;
6828;SDS011;17930;48.592;8.868;2024-03-17T11:52:31;4.27;;;1.97;;
6828;SDS011;17930;48.592;8.868;2024-03-17T11:54:59;3.33;;;1.97;;
6828;SDS011;17930;48.592;8.868;2024-03-17T11:57:25;1.97;;;1.30;;
6828;SDS011;17930;48.592;8.868;2024-03-17T11:59:54;2.57;;;1.60;;
6828;SDS011;17930;48.592;8.868;2024-03-17T12:02:21;2.63;;;1.50;;
6828;SDS011;17930;48.592;8.868;2024-03-17T12:04:51;2.07;;;1.27;;
6828;SDS011;17930;48.592;8.868;2024-03-17T12:07:18;1.83;;;1.27;;
6828;SDS011;17930;48.592;8.868;2024-03-17T12:09:46;2.03;;;1.83;;
6828;SDS011;17930;48.592;8.868;2024-03-17T12:12:16;2.83;;;1.70;;
6828;SDS011;17930;48.592;8.868;2024-03-17T12:14:44;1.83;;;1.53;;
6828;SDS011;17930;48.592;8.868;2024-03-17T12:17:11;4.33;;;1.80;;
6828;SDS011;17930;48.592;8.868;2024-03-17T12:19:39;4.37;;;1.40;;
6828;SDS011;17930;48.592;8.868;2024-03-17T12:22:07;3.27;;;1.40;;
6828;SDS011;17930;48.592;8.868;2024-03-17T12:24:35;3.77;;;1.30;;
6828;SDS011;17930;48.592;8.868;2024-03-17T12:27:03;3.37;;;1.47;;
6828;SDS011;17930;48.592;8.868;2024-03-17T12:29:33;2.70;;;1.10;;
6828;SDS011;17930;48.592;8.868;2024-03-17T12:32:01;1.53;;;1.23;;
6828;SDS011;17930;48.592;8.868;2024-03-17T12:34:31;1.50;;;1.00;;
6828;SDS011;17930;48.592;8.868;2024-03-17T12:36:59;5.40;;;1.00;;
6828;SDS011;17930;48.592;8.868;2024-03-17T12:39:27;1.17;;;0.90;;
6828;SDS011;17930;48.592;8.868;2024-03-17T12:42:06;2.70;;;1.27;;
6828;SDS011;17930;48.592;8.868;2024-03-17T12:44:36;1.97;;;1.30;;
6828;SDS011;17930;48.592;8.868;2024-03-17T12:47:03;3.07;;;1.23;;
6828;SDS011;17930;48.592;8.868;2024-03-17T12:49:31;2.03;;;1.30;;
6828;SDS011;17930;48.592;8.868;2024-03-17T12:51:59;1.20;;;1.10;;
6828;SDS011;17930;48.592;8.868;2024-03-17T12:54:27;4.23;;;2.00;;
6828;SDS011;17930;48.592;8.868;2024-03-17T12:57:03;2.83;;;1.50;;
6828;SDS011;17930;48.592;8.868;2024-03-17T12:59:49;5.30;;;3.63;;
6828;SDS011;17930;48.592;8.868;2024-03-17T13:02:33;2.13;;;1.40;;
6828;SDS011;17930;48.592;8.868;2024-03-17T13:05:16;2.07;;;0.80;;
6828;SDS011;17930;48.592;8.868;2024-03-17T13:07:44;2.53;;;1.20;;
6828;SDS011;17930;48.592;8.868;2024-03-17T13:10:13;1.77;;;1.07;;
6828;SDS011;17930;48.592;8.868;2024-03-17T13:12:41;3.87;;;1.10;;
6828;SDS011;17930;48.592;8.868;2024-03-17T13:15:10;2.83;;;0.80;;
6828;SDS011;17930;48.592;8.868;2024-03-17T13:17:39;2.20;;;1.00;;
6828;SDS011;17930;48.592;8.868;2024-03-17T13:20:06;2.87;;;1.53;;
6828;SDS011;17930;48.592;8.868;2024-03-17T13:22:37;3.03;;;1.37;;
6828;SDS011;17930;48.592;8.868;2024-03-17T13:25:07;3.17;;;1.47;;
6828;SDS011;17930;48.592;8.868;2024-03-17T13:27:35;4.50;;;0.70;;
6828;SDS011;17930;48.592;8.868;2024-03-17T13:30:01;3.27;;;1.20;;
6828;SDS011;17930;48.592;8.868;2024-03-17T13:32:30;2.10;;;0.73;;
6828;SDS011;17930;48.592;8.868;2024-03-17T13:34:57;1.30;;;0.80;;
6828;SDS011;17930;48.592;8.868;2024-03-17T13:37:23;1.07;;;0.80;;
6828;SDS011;17930;48.592;8.868;2024-03-17T13:39:50;4.03;;;0.80;;
6828;SDS011;17930;48.592;8.868;2024-03-17T13:42:17;1.93;;;1.10;;
6828;SDS011;17930;48.592;8.868;2024-03-17T13:44:43;1.30;;;1.00;;
6828;SDS011;17930;48.592;8.868;2024-03-17T13:47:11;1.07;;;0.87;;
6828;SDS011;17930;48.592;8.868;2024-03-17T13:49:44;1.33;;;1.00;;
6828;SDS011;17930;48.592;8.868;2024-03-17T13:52:12;2.07;;;1.10;;
6828;SDS011;17930;48.592;8.868;2024-03-17T13:54:39;2.20;;;0.77;;
6828;SDS011;17930;48.592;8.868;2024-03-17T13:57:05;2.97;;;0.80;;
6828;SDS011;17930;48.592;8.868;2024-03-17T13:59:32;2.10;;;0.93;;
6828;SDS011;17930;48.592;8.868;2024-03-17T14:01:59;1.17;;;0.80;;
6828;SDS011;17930;48.592;8.868;2024-03-17T14:04:27;2.27;;;0.90;;
6828;SDS011;17930;48.592;8.868;2024-03-17T14:06:56;1.67;;;0.80;;
6828;SDS011;17930;48.592;8.868;2024-03-17T14:09:22;10.93;;;4.57;;
6828;SDS011;17930;48.592;8.868;2024-03-17T14:11:49;0.80;;;0.70;;
6828;SDS011;17930;48.592;8.868;2024-03-17T14:14:16;1.80;;;0.90;;
6828;SDS011;17930;48.592;8.868;2024-03-17T14:16:43;1.43;;;1.07;;
6828;SDS011;17930;48.592;8.868;2024-03-17T14:19:10;2.23;;;1.07;;
6828;SDS011;17930;48.592;8.868;2024-03-17T14:21:37;0.80;;;0.70;;
6828;SDS011;17930;48.592;8.868;2024-03-17T14:24:05;2.17;;;0.80;;
6828;SDS011;17930;48.592;8.868;2024-03-17T14:26:34;1.73;;;0.93;;
6828;SDS011;17930;48.592;8.868;2024-03-17T14:29:01;2.67;;;1.53;;
6828;SDS011;17930;48.592;8.868;2024-03-17T14:31:31;1.10;;;0.90;;
6828;SDS011;17930;48.592;8.868;2024-03-17T14:34:01;1.23;;;0.70;;
6828;SDS011;17930;48.592;8.868;2024-03-17T14:36:30;1.83;;;0.80;;
6828;SDS011;17930;48.592;8.868;2024-03-17T14:38:58;2.90;;;1.10;;
6828;SDS011;17930;48.592;8.868;2024-03-17T14:41:28;0.83;;;0.70;;
6828;SDS011;17930;48.592;8.868;2024-03-17T14:43:55;1.00;;;0.80;;
6828;SDS011;17930;48.592;8.868;2024-03-17T14:46:23;2.70;;;1.10;;
6828;SDS011;17930;48.592;8.868;2024-03-17T14:48:50;1.47;;;1.10;;
6828;SDS011;17930;48.592;8.868;2024-03-17T14:51:17;3.20;;;1.17;;
6828;SDS011;17930;48.592;8.868;2024-03-17T14:53:43;2.00;;;0.80;;
6828;SDS011;17930;48.592;8.868;2024-03-17T14:56:15;2.97;;;1.00;;
6828;SDS011;17930;48.592;8.868;2024-03-17T14:58:43;1.87;;;0.83;;
6828;SDS011;17930;48.592;8.868;2024-03-17T15:01:11;1.57;;;1.23;;
6828;SDS011;17930;48.592;8.868;2024-03-17T15:03:38;3.17;;;1.30;;
6828;SDS011;17930;48.592;8.868;2024-03-17T15:06:08;1.40;;;1.10;;
6828;SDS011;17930;48.592;8.868;2024-03-17T15:08:40;1.20;;;0.90;;
6828;SDS011;17930;48.592;8.868;2024-03-17T15:11:06;2.90;;;1.00;;